createdAt,value
2022-07-27T00:00:28.917Z,1.40
2022-07-27T00:05:31.209Z,1.40
2022-07-27T00:10:34.406Z,1.40
2022-07-27T00:15:36.278Z,1.40
2022-07-27T00:20:39.863Z,1.50
2022-07-27T00:25:41.778Z,1.40
2022-07-27T00:30:43.819Z,1.80
2022-07-27T00:35:45.952Z,1.70
2022-07-27T00:40:48.254Z,1.33
2022-07-27T00:45:50.299Z,1.50
2022-07-27T00:50:52.243Z,1.43
2022-07-27T00:55:54.243Z,1.50
2022-07-27T01:00:56.478Z,1.60
2022-07-27T01:06:02.029Z,1.77
2022-07-27T01:11:04.646Z,1.30
2022-07-27T01:16:07.728Z,1.40
2022-07-27T01:21:10.390Z,1.60
2022-07-27T01:26:12.252Z,1.50
2022-07-27T01:31:14.202Z,1.50
2022-07-27T01:36:16.816Z,1.37
2022-07-27T01:41:18.716Z,1.80
2022-07-27T01:46:21.077Z,1.67
2022-07-27T01:51:23.347Z,1.50
2022-07-27T01:56:25.343Z,1.50
2022-07-27T02:01:27.639Z,1.60
2022-07-27T02:06:30.037Z,1.40
2022-07-27T02:12:10.263Z,1.57
2022-07-27T02:17:12.499Z,1.50
2022-07-27T02:22:14.823Z,1.33
2022-07-27T02:27:16.796Z,1.43
2022-07-27T02:32:19.433Z,1.47
2022-07-27T02:37:21.956Z,1.37
2022-07-27T02:42:24.232Z,1.30
2022-07-27T02:47:26.544Z,1.40
2022-07-27T02:52:29.006Z,1.80
2022-07-27T02:57:34.316Z,1.40
2022-07-27T03:02:38.266Z,1.23
2022-07-27T03:07:40.558Z,1.53
2022-07-27T03:12:44.288Z,1.30
2022-07-27T03:17:47.256Z,1.60
2022-07-27T03:22:49.672Z,1.60
2022-07-27T03:27:52.071Z,1.50
2022-07-27T03:32:54.378Z,1.40
2022-07-27T03:37:56.647Z,1.60
2022-07-27T03:42:59.216Z,1.70
2022-07-27T03:48:01.457Z,1.63
2022-07-27T03:53:03.786Z,1.70
2022-07-27T03:58:05.652Z,1.73
2022-07-27T04:03:07.912Z,1.93
2022-07-27T04:08:10.302Z,1.80
2022-07-27T04:13:12.754Z,1.33
2022-07-27T04:18:16.313Z,1.60
2022-07-27T04:23:18.706Z,1.30
2022-07-27T04:28:21.094Z,1.80
2022-07-27T04:33:22.968Z,1.77
2022-07-27T04:38:24.999Z,2.00
2022-07-27T04:43:28.267Z,2.10
2022-07-27T04:48:35.640Z,1.70
2022-07-27T04:53:38.578Z,1.83
2022-07-27T04:58:56.435Z,1.80
2022-07-27T05:03:58.707Z,1.53
2022-07-27T05:09:01.125Z,2.00
2022-07-27T05:14:03.969Z,1.50
2022-07-27T05:19:06.075Z,1.50
2022-07-27T05:24:08.419Z,1.70
2022-07-27T05:29:11.527Z,2.20
2022-07-27T05:34:13.590Z,1.90
2022-07-27T05:39:15.926Z,2.00
2022-07-27T05:44:18.462Z,1.90
2022-07-27T05:49:21.618Z,1.80
2022-07-27T05:54:24.002Z,2.20
2022-07-27T05:59:26.326Z,2.43
2022-07-27T06:04:28.583Z,2.17
2022-07-27T06:09:30.962Z,2.20
2022-07-27T06:14:33.227Z,2.10
2022-07-27T06:19:39.529Z,2.43
2022-07-27T06:24:41.791Z,3.83
2022-07-27T06:29:43.982Z,2.30
2022-07-27T06:34:45.908Z,1.80
2022-07-27T06:39:49.694Z,2.90
2022-07-27T06:44:52.139Z,2.30
2022-07-27T06:49:54.653Z,2.20
2022-07-27T06:54:57.441Z,2.23
2022-07-27T06:59:59.768Z,2.57
2022-07-27T07:05:02.061Z,2.10
2022-07-27T07:10:04.531Z,2.10
2022-07-27T07:15:07.936Z,2.43
2022-07-27T07:20:10.448Z,2.20
2022-07-27T07:25:12.850Z,2.37
2022-07-27T07:30:14.860Z,2.00
2022-07-27T07:35:17.312Z,2.57
2022-07-27T07:45:50.818Z,2.27
2022-07-27T07:50:54.227Z,1.97
2022-07-27T07:55:56.809Z,2.00
2022-07-27T08:00:59.116Z,2.73
2022-07-27T08:06:01.699Z,2.60
2022-07-27T08:11:05.322Z,2.90
2022-07-27T08:16:07.642Z,2.20
2022-07-27T08:21:10.283Z,2.10
2022-07-27T08:26:12.145Z,2.47
2022-07-27T08:31:18.888Z,2.70
2022-07-27T08:36:26.601Z,2.20
2022-07-27T08:41:29.717Z,2.60
2022-07-27T08:46:33.055Z,2.30
2022-07-27T08:51:35.756Z,2.37
2022-07-27T08:56:38.505Z,2.23
2022-07-27T09:01:40.568Z,2.30
2022-07-27T09:06:54.142Z,2.50
2022-07-27T09:12:09.483Z,2.70
2022-07-27T09:22:53.574Z,2.60
2022-07-27T09:27:56.795Z,2.20
2022-07-27T09:33:00.841Z,2.30
2022-07-27T09:38:22.727Z,2.27
2022-07-27T09:48:47.730Z,2.73
2022-07-27T09:53:50.095Z,2.13
2022-07-27T09:58:57.455Z,2.23
2022-07-27T10:04:02.319Z,2.30
2022-07-27T10:09:04.802Z,2.00
2022-07-27T10:14:07.510Z,2.10
2022-07-27T10:19:13.887Z,1.90
2022-07-27T10:24:29.032Z,1.53
2022-07-27T10:29:31.759Z,1.80
2022-07-27T10:34:35.736Z,1.73
2022-07-27T10:39:43.183Z,1.70
2022-07-27T10:44:57.691Z,1.70
2022-07-27T10:50:18.102Z,1.40
2022-07-27T10:55:32.596Z,1.80
2022-07-27T11:00:54.799Z,1.63
2022-07-27T11:06:21.757Z,1.53
2022-07-27T11:11:25.652Z,2.00
2022-07-27T11:16:28.875Z,1.93
2022-07-27T11:21:38.159Z,1.87
2022-07-27T11:26:44.580Z,1.43
2022-07-27T11:31:55.927Z,1.70
2022-07-27T11:37:02.050Z,2.20
2022-07-27T11:42:12.059Z,1.77
2022-07-27T11:47:19.322Z,2.57
2022-07-27T11:52:21.384Z,1.63
2022-07-27T11:57:32.286Z,3.70
2022-07-27T12:02:34.597Z,2.00
2022-07-27T12:07:36.996Z,1.87
2022-07-27T12:12:38.895Z,1.70
2022-07-27T12:17:42.742Z,1.40
2022-07-27T12:22:47.435Z,1.80
2022-07-27T12:28:04.360Z,2.10
2022-07-27T12:33:28.049Z,1.77
2022-07-27T12:38:39.927Z,1.60
2022-07-27T12:43:42.306Z,1.77
2022-07-27T12:48:44.670Z,1.40
2022-07-27T12:53:47.050Z,1.70
2022-07-27T12:58:59.778Z,1.50
2022-07-27T13:04:02.054Z,1.80
2022-07-27T13:09:04.442Z,1.70
2022-07-27T13:14:07.755Z,1.50
2022-07-27T13:19:10.887Z,2.00
2022-07-27T13:24:13.343Z,1.70
2022-07-27T13:29:18.478Z,1.60
2022-07-27T13:34:20.808Z,1.50
2022-07-27T13:39:22.794Z,2.13
2022-07-27T13:44:57.403Z,1.90
2022-07-27T13:49:47.473Z,1.57
2022-07-27T13:54:49.766Z,1.70
2022-07-27T13:59:52.010Z,1.40
2022-07-27T14:04:53.847Z,1.80
2022-07-27T14:10:14.589Z,1.63
2022-07-27T14:15:16.494Z,1.80
2022-07-27T14:20:18.356Z,1.77
2022-07-27T14:25:20.278Z,1.60
2022-07-27T14:30:22.352Z,1.40
2022-07-27T14:35:24.815Z,2.00
2022-07-27T14:40:26.923Z,1.93
2022-07-27T14:45:44.701Z,1.60
2022-07-27T14:50:48.123Z,1.70
2022-07-27T14:55:50.490Z,1.80
2022-07-27T15:00:52.689Z,1.77
2022-07-27T15:05:55.030Z,2.00
2022-07-27T15:10:57.616Z,1.80
2022-07-27T15:16:00.034Z,2.20
2022-07-27T15:21:02.038Z,1.90
2022-07-27T15:26:13.163Z,1.73
2022-07-27T15:31:16.398Z,1.67
2022-07-27T15:36:32.336Z,2.00
2022-07-27T15:41:37.273Z,1.70
2022-07-27T15:46:39.546Z,1.70
2022-07-27T15:51:42.559Z,1.80
2022-07-27T15:56:44.790Z,2.00
2022-07-27T16:01:47.199Z,1.83
2022-07-27T16:06:49.285Z,1.60
2022-07-27T16:11:51.189Z,1.60
2022-07-27T16:16:53.429Z,3.40
2022-07-27T16:21:56.093Z,2.00
2022-07-27T16:26:58.643Z,1.60
2022-07-27T16:32:00.969Z,2.00
2022-07-27T16:37:02.922Z,3.60
2022-07-27T16:42:05.142Z,1.87
2022-07-27T16:47:07.408Z,1.77
2022-07-27T16:52:09.772Z,2.00
2022-07-27T16:57:11.713Z,1.70
2022-07-27T17:02:13.626Z,1.90
2022-07-27T17:07:15.920Z,1.97
2022-07-27T17:12:18.127Z,2.40
2022-07-27T17:17:23.151Z,1.60
2022-07-27T17:22:25.039Z,1.60
2022-07-27T17:27:27.362Z,1.90
2022-07-27T17:32:29.605Z,1.80
2022-07-27T17:37:56.079Z,1.90
2022-07-27T17:42:53.681Z,1.80
2022-07-27T17:47:55.750Z,1.60
2022-07-27T17:52:59.238Z,1.80
2022-07-27T17:58:01.093Z,1.80
2022-07-27T18:03:05.265Z,1.90
2022-07-27T18:08:07.868Z,2.20
2022-07-27T18:13:09.738Z,1.80
2022-07-27T18:18:11.977Z,1.77
2022-07-27T18:23:14.951Z,1.53
2022-07-27T18:28:18.922Z,1.80
2022-07-27T18:33:21.979Z,1.83
2022-07-27T18:38:24.288Z,1.93
2022-07-27T18:43:26.398Z,1.80
2022-07-27T18:48:28.818Z,1.73
2022-07-27T18:53:31.113Z,2.20
2022-07-27T18:58:33.681Z,1.93
2022-07-27T19:03:36.263Z,2.20
2022-07-27T19:08:39.281Z,2.10
2022-07-27T19:13:41.854Z,2.20
2022-07-27T19:18:44.615Z,2.10
2022-07-27T19:23:46.796Z,2.10
2022-07-27T19:28:48.738Z,2.10
2022-07-27T19:33:52.109Z,2.43
2022-07-27T19:38:54.249Z,2.50
2022-07-27T19:43:56.577Z,2.80
2022-07-27T19:48:59.248Z,2.50
2022-07-27T19:54:01.187Z,2.80
2022-07-27T19:59:03.204Z,2.53
2022-07-27T20:04:07.278Z,2.80
2022-07-27T20:09:09.522Z,2.67
2022-07-27T20:14:11.535Z,2.50
2022-07-27T20:19:14.293Z,2.70
2022-07-27T20:24:16.541Z,2.77
2022-07-27T20:29:18.468Z,2.70
2022-07-27T20:34:20.811Z,2.53
2022-07-27T20:39:25.312Z,2.70
2022-07-27T20:44:27.926Z,2.93
2022-07-27T20:49:30.282Z,2.50
2022-07-27T20:54:32.418Z,2.60
2022-07-27T20:59:34.501Z,2.60
2022-07-27T21:04:36.823Z,2.60
2022-07-27T21:09:38.712Z,3.00
2022-07-27T21:14:43.058Z,3.83
2022-07-27T21:19:45.016Z,2.90
2022-07-27T21:24:46.912Z,3.00
2022-07-27T21:29:51.935Z,2.80
2022-07-27T21:34:54.271Z,2.50
2022-07-27T21:39:56.517Z,2.73
2022-07-27T21:44:58.372Z,2.93
2022-07-27T21:50:00.750Z,2.70
2022-07-27T21:55:03.042Z,2.40
2022-07-27T22:00:06.335Z,2.70
2022-07-27T22:05:08.934Z,2.47
2022-07-27T22:10:11.334Z,2.80
2022-07-27T22:15:13.675Z,2.63
2022-07-27T22:20:16.049Z,2.83
2022-07-27T22:25:19.280Z,2.40
2022-07-27T22:30:21.583Z,2.60
2022-07-27T22:35:23.855Z,2.27
2022-07-27T22:40:25.728Z,2.60
2022-07-27T22:45:28.074Z,2.70
2022-07-27T22:50:33.854Z,2.70
2022-07-27T22:55:38.274Z,2.30
2022-07-27T23:00:40.336Z,2.30
2022-07-27T23:05:42.936Z,2.37
2022-07-27T23:10:47.980Z,2.20
2022-07-27T23:15:50.603Z,2.37
2022-07-27T23:20:55.883Z,2.47
2022-07-27T23:25:57.961Z,2.50
2022-07-27T23:31:00.283Z,2.30
2022-07-27T23:36:06.641Z,2.40
2022-07-27T23:41:08.921Z,2.43
2022-07-27T23:46:11.300Z,2.43
2022-07-27T23:51:20.769Z,2.40
2022-07-27T23:56:23.083Z,2.40
